Terminal Aerodrome Forecast
Issued by NWS

Home | Current Version | Previous Version | Text Only | Print | Product List | Glossary On
Versions: 1 2 3 4 5 6 7 8 9 10 11 12 13
000
FTUS45 KRIW 230500
TAFJAC
TAF
KJAC 230520Z 2306/2406 19015G25KT 3SM -SN BKN024
     FM231000 20015KT P6SM VCSH SCT024 BKN040
     FM231700 21020G30KT P6SM VCSH BKN030
     FM240200 20012KT P6SM VCSH SCT025 BKN040
      AMD LTD TO CLD VIS AND WIND=

USA.gov is the U.S. government's official web portal to all federal, state and local government web resources and services.